Time;durP1;ratioP1;P1;durP2;ratioP2;P2;SDS_P1;SDS_P2;PMS_P1;PMS_P2;Temp;Humidity;BMP_temperature;BMP_pressure;BME280_temperature;BME280_humidity;BME280_pressure;Samples;Min_cycle;Max_cycle;Signal;HPM_P1;HPM_P2
2021/08/28 02:37:23;;;;;;;14.88;5.22;;;;;;;15.42;100.00;101974.28;2613465;54;19989;-69
2021/08/28 02:39:53;;;;;;;10.02;4.30;;;;;;;15.36;100.00;101976.72;2617143;36;20057;-67
2021/08/28 02:42:21;;;;;;;;;;;;;;;15.36;100.00;101961.28;2616521;36;20579;-69
2021/08/28 02:44:51;;;;;;;10.95;4.55;;;;;;;15.34;100.00;101960.59;2616377;36;20034;-69
2021/08/28 02:47:20;;;;;;;11.85;4.95;;;;;;;15.29;100.00;101965.56;2616031;36;20550;-68
2021/08/28 02:49:50;;;;;;;14.73;5.15;;;;;;;15.23;100.00;101961.53;2616626;36;20117;-71
2021/08/28 02:52:19;;;;;;;;;;;;;;;15.24;100.00;101963.25;2615993;36;20073;-67
2021/08/28 02:54:52;;;;;;;12.57;4.57;;;;;;;15.28;100.00;101961.13;2615538;36;19997;-69
2021/08/28 02:57:21;;;;;;;9.82;4.30;;;;;;;15.25;100.00;101961.41;2609987;36;20137;-67
2021/08/28 02:59:51;;;;;;;10.65;4.45;;;;;;;15.21;100.00;101962.69;2616561;36;20073;-70
2021/08/28 03:02:20;;;;;;;;;;;;;;;15.19;100.00;101959.25;2615311;36;20157;-68
2021/08/28 03:04:49;;;;;;;10.52;4.68;;;;;;;15.14;100.00;101956.97;2611892;36;19946;-70
2021/08/28 03:07:20;;;;;;;9.63;4.50;;;;;;;15.15;100.00;101964.13;2615812;36;20110;-70
2021/08/28 03:09:52;;;;;;;9.70;4.60;;;;;;;15.16;100.00;101957.66;2616921;31;20137;-68
2021/08/28 03:12:20;;;;;;;15.95;5.25;;;;;;;15.17;100.00;101953.97;2615347;31;20019;-70
2021/08/28 03:14:50;;;;;;;10.25;4.75;;;;;;;15.17;100.00;101953.13;2616031;36;20081;-68
2021/08/28 03:17:19;;;;;;;10.40;5.35;;;;;;;15.26;100.00;101963.13;2616414;36;20434;-68
2021/08/28 03:19:49;;;;;;;13.43;5.07;;;;;;;15.19;100.00;101970.09;2616457;36;20456;-67
2021/08/28 03:22:22;;;;;;;13.70;5.10;;;;;;;15.21;100.00;101957.28;2616431;36;20586;-68
2021/08/28 03:24:55;;;;;;;11.75;4.93;;;;;;;15.17;100.00;101966.69;2616306;36;20756;-66
2021/08/28 03:27:24;;;;;;;13.23;5.00;;;;;;;15.18;100.00;101965.66;2616594;36;20188;-70
2021/08/28 03:29:54;;;;;;;14.30;5.15;;;;;;;15.13;100.00;101970.66;2616417;36;20102;-69
2021/08/28 03:32:23;;;;;;;10.70;4.35;;;;;;;15.11;100.00;101964.53;2616262;36;20463;-66
2021/08/28 03:34:51;;;;;;;;;;;;;;;15.04;100.00;101962.34;2616354;36;20118;-65
2021/08/28 03:37:21;;;;;;;9.48;4.20;;;;;;;15.02;100.00;101955.38;2615737;36;20138;-66
2021/08/28 03:39:52;;;;;;;5.60;3.47;;;;;;;14.98;100.00;101962.06;2616029;31;20552;-68
2021/08/28 03:42:20;;;;;;;5.80;3.60;;;;;;;14.88;100.00;101956.59;2616875;31;20117;-66
2021/08/28 03:44:48;;;;;;;12.65;3.85;;;;;;;14.80;100.00;101962.72;2616645;36;20069;-67
2021/08/28 03:47:17;;;;;;;7.97;3.80;;;;;;;14.81;100.00;101960.84;2616905;36;20154;-67
2021/08/28 03:49:45;;;;;;;7.70;3.88;;;;;;;14.80;100.00;101960.00;2615670;36;20019;-67
2021/08/28 03:52:14;;;;;;;7.67;4.80;;;;;;;14.84;100.00;101966.88;2616772;36;20571;-66
2021/08/28 03:54:42;;;;;;;12.20;4.50;;;;;;;14.86;100.00;101967.56;2616518;36;20082;-67
2021/08/28 03:57:13;;;;;;;10.77;5.28;;;;;;;14.87;100.00;101954.91;2617040;36;20066;-67
2021/08/28 03:59:41;;;;;;;9.57;4.72;;;;;;;14.92;100.00;101965.34;2617046;36;20061;-67
2021/08/28 04:02:09;;;;;;;12.80;5.50;;;;;;;14.92;100.00;101966.19;2615178;36;20125;-66
2021/08/28 04:04:37;;;;;;;13.10;4.88;;;;;;;14.87;100.00;101966.59;2601595;31;20120;-67
2021/08/28 04:07:05;;;;;;;11.02;5.18;;;;;;;14.94;100.00;101961.47;2617993;31;20479;-67
2021/08/28 04:09:34;;;;;;;10.20;4.90;;;;;;;14.94;100.00;101966.03;2616854;36;20110;-67
2021/08/28 04:12:02;;;;;;;11.63;5.32;;;;;;;14.94;100.00;101963.34;2616527;36;20157;-68
2021/08/28 04:14:33;;;;;;;12.52;5.20;;;;;;;14.96;100.00;101958.63;2617689;36;20062;-65
2021/08/28 04:17:01;;;;;;;11.35;5.20;;;;;;;14.98;100.00;101962.06;2613759;36;20215;-66
2021/08/28 04:19:29;;;;;;;13.30;5.05;;;;;;;15.03;100.00;101960.66;2617349;36;20038;-66
2021/08/28 04:21:57;;;;;;;9.03;5.27;;;;;;;14.98;100.00;101957.50;2616351;36;20031;-67
2021/08/28 04:24:26;;;;;;;11.88;5.15;;;;;;;15.03;100.00;101962.50;2603221;36;20113;-66
2021/08/28 04:26:54;;;;;;;10.20;5.20;;;;;;;15.00;100.00;101960.06;2617833;31;20515;-67
2021/08/28 04:29:22;;;;;;;11.97;5.40;;;;;;;15.01;100.00;101961.78;2616817;36;20117;-67
2021/08/28 04:31:53;;;;;;;10.98;5.15;;;;;;;14.98;100.00;101960.19;2616467;36;20054;-67
2021/08/28 04:34:21;;;;;;;9.88;4.95;;;;;;;15.02;100.00;101964.34;2617237;36;20042;-66
2021/08/28 04:36:50;;;;;;;13.73;5.30;;;;;;;15.03;100.00;101959.78;2614683;36;20133;-66
2021/08/28 04:39:20;;;;;;;9.00;5.20;;;;;;;15.07;100.00;101964.81;2616069;36;20121;-67
2021/08/28 04:41:48;;;;;;;12.70;5.43;;;;;;;15.01;100.00;101968.06;2616904;36;20027;-65
2021/08/28 04:44:16;;;;;;;10.67;5.87;;;;;;;14.94;100.00;101966.88;2616801;31;20073;-67
2021/08/28 04:46:45;;;;;;;13.75;6.20;;;;;;;14.95;100.00;101963.19;2616747;36;20026;-68
2021/08/28 04:49:15;;;;;;;10.50;5.30;;;;;;;14.93;100.00;101962.47;2615833;36;20110;-68
2021/08/28 04:51:44;;;;;;;10.30;5.90;;;;;;;14.92;100.00;101966.19;2616936;31;20489;-67
2021/08/28 04:54:12;;;;;;;15.75;5.70;;;;;;;14.97;100.00;101966.63;2615395;36;20141;-67
2021/08/28 04:56:40;;;;;;;9.07;5.17;;;;;;;14.98;100.00;101971.03;2616429;36;20175;-67
2021/08/28 04:59:08;;;;;;;15.52;5.97;;;;;;;15.00;100.00;101977.22;2617238;36;20547;-67
2021/08/28 05:01:37;;;;;;;13.23;6.37;;;;;;;14.99;100.00;101980.91;2617266;31;20535;-66
2021/08/28 05:04:05;;;;;;;20.02;6.35;;;;;;;15.02;100.00;101983.34;2617198;36;20074;-67
2021/08/28 05:06:36;;;;;;;12.60;6.68;;;;;;;15.04;100.00;101986.75;2616615;36;20035;-66
2021/08/28 05:09:04;;;;;;;12.43;6.15;;;;;;;15.05;100.00;101985.75;2617116;36;20077;-65
2021/08/28 05:11:33;;;;;;;10.88;6.00;;;;;;;15.09;100.00;101991.78;2617524;31;20456;-66
2021/08/28 05:14:01;;;;;;;15.10;5.97;;;;;;;15.15;100.00;101984.94;2617856;36;20113;-66
2021/08/28 05:16:29;;;;;;;12.15;5.97;;;;;;;15.15;100.00;101980.38;2617007;36;20042;-66
2021/08/28 05:18:57;;;;;;;14.27;6.10;;;;;;;15.20;100.00;101988.09;2618189;31;20488;-66
2021/08/28 05:21:25;;;;;;;14.23;5.63;;;;;;;15.19;100.00;101978.25;2616673;36;20154;-68
2021/08/28 05:23:56;;;;;;;14.00;5.73;;;;;;;15.18;100.00;101981.94;2617040;36;20126;-65
2021/08/28 05:26:25;;;;;;;16.55;6.00;;;;;;;15.19;100.00;101981.81;2615996;36;20142;-66
2021/08/28 05:28:53;;;;;;;12.83;5.37;;;;;;;15.19;100.00;101983.66;2613236;36;20187;-66
2021/08/28 05:31:21;;;;;;;11.95;5.38;;;;;;;15.20;100.00;101983.53;2616386;36;20117;-66
2021/08/28 05:33:49;;;;;;;19.25;6.10;;;;;;;15.19;100.00;101989.97;2617282;36;20027;-66
2021/08/28 05:36:17;;;;;;;9.25;5.43;;;;;;;15.28;100.00;101988.25;2616897;36;20114;-66
2021/08/28 05:38:46;;;;;;;9.85;4.82;;;;;;;15.30;100.00;101988.13;2616998;36;20633;-66
2021/08/28 05:41:16;;;;;;;11.02;5.55;;;;;;;15.32;100.00;101986.97;2616256;36;20027;-66
2021/08/28 05:43:45;;;;;;;14.48;6.18;;;;;;;15.36;100.00;101985.69;2617001;36;20125;-65
2021/08/28 05:46:13;;;;;;;13.30;4.60;;;;;;;15.40;100.00;101989.84;2616160;36;20022;-66
2021/08/28 05:48:41;;;;;;;14.27;5.30;;;;;;;15.48;100.00;101985.59;2617585;36;20587;-65
2021/08/28 05:51:09;;;;;;;10.90;5.00;;;;;;;15.44;100.00;101986.84;2617149;36;20106;-67
2021/08/28 05:53:38;;;;;;;9.35;4.78;;;;;;;15.50;100.00;101991.72;2617596;36;20347;-65
2021/08/28 05:56:06;;;;;;;11.77;5.27;;;;;;;15.49;100.00;101993.59;2616887;36;20085;-67
2021/08/28 05:58:37;;;;;;;9.35;4.75;;;;;;;15.50;100.00;101984.47;2617308;36;20056;-67
2021/08/28 06:01:06;;;;;;;11.10;5.78;;;;;;;15.52;100.00;101987.03;2616415;36;20612;-68
2021/08/28 06:03:34;;;;;;;14.82;5.05;;;;;;;15.56;100.00;101985.72;2616632;36;20572;-67
2021/08/28 06:06:02;;;;;;;14.48;5.00;;;;;;;15.53;100.00;101986.88;2617334;36;20073;-67
2021/08/28 06:08:30;;;;;;;12.60;5.20;;;;;;;15.50;100.00;101989.88;2617799;31;20502;-65
2021/08/28 06:10:59;;;;;;;10.32;5.00;;;;;;;15.50;100.00;101997.13;2617152;36;20026;-65
2021/08/28 06:13:27;;;;;;;15.13;5.93;;;;;;;15.50;100.00;102000.72;2616638;36;20736;-65
2021/08/28 06:15:58;;;;;;;13.75;5.43;;;;;;;15.53;100.00;101994.16;2611292;36;20093;-65
2021/08/28 06:18:26;;;;;;;14.57;5.55;;;;;;;15.64;100.00;102002.16;2614018;36;20134;-66
2021/08/28 06:20:54;;;;;;;13.30;5.75;;;;;;;15.59;100.00;101994.44;2617292;36;20030;-66
2021/08/28 06:23:22;;;;;;;7.83;4.77;;;;;;;15.66;100.00;102005.59;2616965;31;20114;-65
2021/08/28 06:25:50;;;;;;;13.43;5.20;;;;;;;15.66;100.00;102004.75;2616572;36;20078;-68
2021/08/28 06:28:19;;;;;;;11.68;5.07;;;;;;;15.67;100.00;101996.44;2616775;36;20110;-68
2021/08/28 06:30:47;;;;;;;13.73;4.60;;;;;;;15.71;100.00;101997.88;2616825;36;20063;-66
2021/08/28 06:33:18;;;;;;;11.18;5.22;;;;;;;15.82;100.00;102004.22;2616649;36;20117;-67
2021/08/28 06:35:46;;;;;;;11.65;5.68;;;;;;;15.90;100.00;102013.34;2616772;31;20125;-66
2021/08/28 06:38:14;;;;;;;13.20;5.20;;;;;;;16.17;100.00;102002.78;2617612;31;20141;-66
2021/08/28 06:40:42;;;;;;;10.43;5.70;;;;;;;16.26;100.00;102001.88;2616768;36;20173;-65
2021/08/28 06:43:11;;;;;;;15.65;5.25;;;;;;;16.28;100.00;101999.88;2617024;36;20139;-66
2021/08/28 06:45:39;;;;;;;10.57;5.23;;;;;;;16.22;100.00;101995.88;2616931;36;20552;-66
2021/08/28 06:48:08;;;;;;;13.50;5.03;;;;;;;16.15;100.00;101999.31;2616391;31;20503;-66
2021/08/28 06:50:39;;;;;;;16.00;5.35;;;;;;;16.19;100.00;101996.16;2616409;36;20026;-66
2021/08/28 06:53:07;;;;;;;11.73;5.10;;;;;;;16.32;100.00;101993.16;2616281;36;20086;-68
2021/08/28 06:55:35;;;;;;;7.33;4.27;;;;;;;16.50;100.00;102003.25;2615398;36;20197;-67
2021/08/28 06:58:04;;;;;;;12.60;4.83;;;;;;;16.51;100.00;101991.41;2616353;36;20154;-66
2021/08/28 07:00:32;;;;;;;13.67;5.30;;;;;;;16.53;100.00;101992.09;2616008;36;20053;-66
2021/08/28 07:03:00;;;;;;;10.87;4.67;;;;;;;16.52;100.00;101987.66;2616282;36;20602;-65
2021/08/28 07:05:28;;;;;;;14.25;5.50;;;;;;;16.45;100.00;101998.28;2617351;36;20125;-65
2021/08/28 07:07:59;;;;;;;10.67;4.83;;;;;;;16.53;100.00;101986.66;2616475;31;20043;-66
2021/08/28 07:10:27;;;;;;;12.43;5.30;;;;;;;16.52;100.00;101995.81;2616591;31;20128;-67
2021/08/28 07:12:56;;;;;;;12.67;5.07;;;;;;;16.54;100.00;102000.09;2616921;36;20051;-66
2021/08/28 07:15:24;;;;;;;12.17;4.37;;;;;;;16.63;100.00;102009.22;2617198;36;20323;-67
2021/08/28 07:17:52;;;;;;;11.80;5.03;;;;;;;16.58;100.00;102006.13;2617947;36;20451;-67
2021/08/28 07:20:20;;;;;;;12.93;4.72;;;;;;;16.52;100.00;102012.13;2614562;31;20133;-67
2021/08/28 07:22:49;;;;;;;14.80;5.33;;;;;;;16.68;100.00;102006.94;2617259;36;20038;-66
2021/08/28 07:25:19;;;;;;;8.10;4.65;;;;;;;16.76;100.00;102006.19;2617037;36;20042;-68
2021/08/28 07:27:47;;;;;;;8.20;4.45;;;;;;;16.92;100.00;101992.00;2617208;36;20027;-67
2021/08/28 07:30:16;;;;;;;9.20;4.30;;;;;;;17.02;100.00;101997.38;2617614;36;20061;-66
2021/08/28 07:32:44;;;;;;;8.73;4.30;;;;;;;17.10;100.00;101998.34;2617513;36;20057;-67
2021/08/28 07:35:13;;;;;;;10.83;4.90;;;;;;;17.22;100.00;102007.13;2618056;36;20172;-66
2021/08/28 07:37:41;;;;;;;10.75;4.55;;;;;;;17.24;100.00;101996.09;2617698;36;20134;-68
2021/08/28 07:40:11;;;;;;;13.20;4.10;;;;;;;17.21;100.00;102005.44;2616912;36;20070;-66
2021/08/28 07:42:41;;;;;;;9.98;4.70;;;;;;;17.34;100.00;102002.34;2617336;36;20030;-68
2021/08/28 07:45:11;;;;;;;10.77;4.03;;;;;;;17.55;100.00;101995.75;2617303;31;20581;-67
2021/08/28 07:47:39;;;;;;;10.57;3.92;;;;;;;17.71;100.00;102001.41;2617370;36;20822;-66
2021/08/28 07:50:08;;;;;;;9.10;4.13;;;;;;;17.74;100.00;102000.22;2617646;36;20529;-67
2021/08/28 07:52:39;;;;;;;10.02;4.50;;;;;;;17.90;100.00;101997.66;2616738;36;20035;-68
2021/08/28 07:55:09;;;;;;;9.30;4.38;;;;;;;18.23;100.00;101978.88;2617361;36;20054;-68
2021/08/28 07:57:37;;;;;;;10.18;4.28;;;;;;;18.41;100.00;101995.19;2617582;31;20495;-66
2021/08/28 08:00:10;;;;;;;9.40;4.22;;;;;;;18.57;100.00;101983.53;2617006;36;20441;-68
2021/08/28 08:02:39;;;;;;;9.32;4.15;;;;;;;18.27;100.00;101990.28;2617468;36;20061;-66
2021/08/28 08:05:08;;;;;;;8.93;4.22;;;;;;;18.06;100.00;101996.09;2617757;36;20063;-66
2021/08/28 08:07:36;;;;;;;10.20;4.40;;;;;;;17.88;100.00;101994.22;2617779;36;20023;-67
2021/08/28 08:10:05;;;;;;;7.30;3.75;;;;;;;17.98;100.00;102005.06;2618233;31;20511;-66
2021/08/28 08:12:33;;;;;;;10.55;3.90;;;;;;;17.78;100.00;102004.34;2618334;36;20383;-66
2021/08/28 08:15:02;;;;;;;7.78;4.63;;;;;;;17.71;100.00;101998.69;2617790;36;20030;-66
2021/08/28 08:17:33;;;;;;;6.60;3.97;;;;;;;17.69;100.00;102000.69;2617866;36;20027;-67
2021/08/28 08:20:01;;;;;;;6.22;4.03;;;;;;;17.60;100.00;102010.63;2617343;36;20113;-67
2021/08/28 08:22:29;;;;;;;8.57;3.90;;;;;;;17.59;100.00;102013.50;2617456;36;20656;-66
2021/08/28 08:24:57;;;;;;;7.23;4.13;;;;;;;17.75;100.00;102013.66;2617269;36;20073;-67
2021/08/28 08:27:26;;;;;;;9.80;4.10;;;;;;;17.77;100.00;102018.97;2615325;36;20041;-67
2021/08/28 08:29:54;;;;;;;7.93;4.47;;;;;;;17.68;100.00;102021.63;2615110;36;20150;-71
2021/08/28 08:32:23;;;;;;;7.43;4.20;;;;;;;17.75;100.00;102010.94;2616767;36;20587;-67
2021/08/28 08:34:54;;;;;;;9.50;4.97;;;;;;;17.79;100.00;102019.69;2618328;36;20053;-71
2021/08/28 08:37:23;;;;;;;10.27;4.32;;;;;;;17.94;100.00;102028.19;2617436;36;20031;-66
2021/08/28 08:39:53;;;;;;;11.50;4.50;;;;;;;17.83;100.00;102030.09;2617186;36;20122;-66
2021/08/28 08:42:24;;;;;;;9.70;4.05;;;;;;;17.96;100.00;102023.41;2616251;31;20295;-67
2021/08/28 08:44:54;;;;;;;8.07;4.22;;;;;;;18.01;100.00;102030.13;2618084;31;20134;-69
2021/08/28 08:47:22;;;;;;;;;;;;;;;18.01;100.00;102021.94;2616267;36;20069;-66
2021/08/28 08:49:54;;;;;;;12.05;4.32;;;;;;;18.07;100.00;102017.75;2615539;36;19947;-69
2021/08/28 08:52:23;;;;;;;8.60;3.90;;;;;;;18.42;100.00;102015.97;2616404;36;20027;-66
2021/08/28 08:54:51;;;;;;;8.55;4.32;;;;;;;18.34;100.00;102022.22;2616260;36;20062;-68
2021/08/28 08:57:20;;;;;;;9.05;4.40;;;;;;;18.28;100.00;102019.28;2616303;36;20099;-67
2021/08/28 08:59:48;;;;;;;8.57;4.50;;;;;;;18.37;100.00;102031.94;2616000;36;20558;-68
2021/08/28 09:02:16;;;;;;;9.02;4.07;;;;;;;18.17;100.00;102034.84;2615592;36;20300;-66
2021/08/28 09:04:45;;;;;;;9.50;4.80;;;;;;;18.25;100.00;102022.31;2615694;36;20118;-71
2021/08/28 09:07:15;;;;;;;7.97;4.50;;;;;;;18.42;100.00;102021.44;2615842;36;20129;-70
2021/08/28 09:09:44;;;;;;;11.88;4.72;;;;;;;18.41;100.00;102027.03;2616076;36;20312;-66
2021/08/28 09:12:13;;;;;;;8.40;4.10;;;;;;;18.47;100.00;102010.88;2613726;31;20138;-67
2021/08/28 09:14:42;;;;;;;7.90;3.80;;;;;;;18.50;100.00;102017.91;2615754;36;20558;-68
2021/08/28 09:17:19;;;;;;;9.25;4.78;;;;;;;18.78;100.00;102013.13;2616799;31;20703;-70
2021/08/28 09:19:48;;;;;;;8.90;4.22;;;;;;;19.19;100.00;102007.03;2615360;36;20026;-68
2021/08/28 09:22:28;;;;;;;8.95;4.55;;;;;;;19.15;100.00;102006.50;2615912;31;20439;-67
2021/08/28 09:25:00;;;;;;;8.30;3.80;;;;;;;19.18;100.00;102011.63;2615519;36;20057;-69
2021/08/28 09:27:40;;;;;;;5.82;3.70;;;;;;;19.30;100.00;102006.75;2616169;36;20030;-70
2021/08/28 09:30:24;;;;;;;11.82;4.53;;;;;;;19.30;100.00;102005.88;2617052;36;20045;-68
2021/08/28 09:32:56;;;;;;;8.23;4.43;;;;;;;19.47;100.00;102013.09;2617983;31;20510;-70
2021/08/28 09:35:26;;;;;;;7.75;3.53;;;;;;;19.38;100.00;102014.09;2617361;36;20073;-70
2021/08/28 09:37:59;;;;;;;7.78;4.13;;;;;;;19.33;100.00;102016.44;2616883;36;20567;-67
2021/08/28 09:40:30;;;;;;;9.50;4.03;;;;;;;19.59;100.00;102019.94;2617337;36;20165;-69
2021/08/28 09:43:01;;;;;;;5.82;3.90;;;;;;;19.55;100.00;102023.16;2617474;36;20034;-69
2021/08/28 09:45:29;;;;;;;9.30;4.05;;;;;;;19.85;100.00;102029.06;2617432;36;20027;-71
2021/08/28 09:47:59;;;;;;;8.20;3.83;;;;;;;19.59;100.00;102036.31;2619250;31;20578;-69
2021/08/28 09:50:34;;;;;;;8.02;4.05;;;;;;;19.40;100.00;102031.16;2617417;31;20038;-69
2021/08/28 09:53:07;;;;;;;9.52;4.10;;;;;;;19.33;100.00;102027.38;2617398;36;20030;-69
2021/08/28 09:55:38;;;;;;;7.70;3.72;;;;;;;19.30;100.00;102027.69;2617440;36;20026;-74
2021/08/28 09:58:07;;;;;;;5.63;3.47;;;;;;;19.59;100.00;102027.28;2614223;36;20117;-67
2021/08/28 10:00:37;;;;;;;6.28;3.80;;;;;;;19.76;100.00;102033.63;2615854;36;20110;-66
2021/08/28 10:03:07;;;;;;;5.13;2.65;;;;;;;19.50;100.00;102031.88;2616804;36;20609;-70
2021/08/28 10:05:37;;;;;;;4.90;3.28;;;;;;;19.13;100.00;102035.84;2617376;36;20646;-72
2021/08/28 10:08:09;;;;;;;5.60;3.40;;;;;;;18.96;100.00;102032.16;2610377;36;20057;-67
2021/08/28 10:10:39;;;;;;;7.10;3.47;;;;;;;18.69;100.00;102049.53;2617447;31;20130;-69
2021/08/28 10:13:09;;;;;;;5.65;2.80;;;;;;;18.65;100.00;102046.25;2617984;31;20518;-66
2021/08/28 10:15:38;;;;;;;4.10;2.80;;;;;;;18.60;100.00;102053.25;2617338;36;20085;-66
2021/08/28 10:18:08;;;;;;;5.75;3.08;;;;;;;18.65;100.00;102049.00;2617223;36;20022;-72
2021/08/28 10:20:39;;;;;;;4.75;3.03;;;;;;;18.71;100.00;102051.09;2617446;36;20077;-66
2021/08/28 10:23:14;;;;;;;5.25;3.10;;;;;;;18.67;100.00;102049.72;2617461;36;20110;-65
2021/08/28 10:25:50;;;;;;;8.13;2.95;;;;;;;18.63;100.00;102052.91;2616860;36;20617;-65
2021/08/28 10:28:19;;;;;;;6.30;3.38;;;;;;;18.51;100.00;102055.91;2617155;36;20022;-68
2021/08/28 10:30:48;;;;;;;7.13;3.13;;;;;;;18.67;100.00;102065.22;2617129;36;20049;-65
2021/08/28 10:33:17;;;;;;;5.22;3.05;;;;;;;18.58;100.00;102050.69;2617443;31;20080;-72
2021/08/28 10:35:45;;;;;;;6.82;3.10;;;;;;;18.71;100.00;102050.22;2617088;36;20125;-68
2021/08/28 10:38:17;;;;;;;8.77;2.95;;;;;;;18.93;100.00;102048.00;2617373;31;20046;-68
2021/08/28 10:40:46;;;;;;;4.38;3.20;;;;;;;19.23;100.00;102043.91;2617707;31;20074;-66
2021/08/28 10:43:15;;;;;;;6.00;2.97;;;;;;;18.93;100.00;102053.47;2615269;36;20117;-64
2021/08/28 10:45:43;;;;;;;5.15;2.95;;;;;;;18.76;100.00;102053.34;2617078;36;20085;-69
2021/08/28 10:48:13;;;;;;;6.22;3.05;;;;;;;18.74;100.00;102052.63;2617609;31;20117;-65
2021/08/28 10:50:42;;;;;;;5.72;3.03;;;;;;;18.61;100.00;102061.25;2616799;36;20030;-72
2021/08/28 10:53:11;;;;;;;5.35;3.10;;;;;;;18.59;100.00;102051.53;2617099;36;20022;-66
2021/08/28 10:55:43;;;;;;;;;;;;;;;18.48;100.00;102060.81;2615581;36;20023;-66
2021/08/28 10:58:18;;;;;;;10.02;3.80;;;;;;;18.58;100.00;102056.13;2617181;36;19956;-70
2021/08/28 11:00:49;;;;;;;8.10;3.05;;;;;;;18.96;100.00;102053.13;2617133;36;20110;-69
2021/08/28 11:03:26;;;;;;;6.75;2.50;;;;;;;19.26;100.00;102049.88;2617052;36;20030;-67
2021/08/28 11:06:26;;;;;;;5.82;2.90;;;;;;;19.55;100.00;102051.34;2617115;31;20023;-67
2021/08/28 11:08:56;;;;;;;5.25;2.42;;;;;;;20.18;100.00;102046.31;2616843;36;20547;-68
2021/08/28 11:11:35;;;;;;;6.13;2.50;;;;;;;20.16;100.00;102045.66;2616820;36;20046;-67
2021/08/28 11:14:04;;;;;;;;;;;;;;;19.80;100.00;102048.69;2617001;36;20424;-66
2021/08/28 11:16:54;;;;;;;7.60;2.83;;;;;;;19.79;100.00;102044.25;2616352;36;19945;-69
2021/08/28 11:19:41;;;;;;;4.13;2.38;;;;;;;20.11;100.00;102039.81;2617645;36;20395;-71
2021/08/28 11:22:22;;;;;;;6.22;2.88;;;;;;;20.39;100.00;102031.28;2617019;36;20043;-68
2021/08/28 11:24:58;;;;;;;7.78;2.50;;;;;;;20.17;100.00;102033.69;2617011;36;20030;-68
2021/08/28 11:27:45;;;;;;;5.25;2.80;;;;;;;19.63;100.00;102045.03;2617365;36;20400;-66
2021/08/28 11:30:16;;;;;;;6.45;2.70;;;;;;;19.47;100.00;102051.31;2616796;36;20029;-68
2021/08/28 11:33:02;;;;;;;4.63;2.50;;;;;;;19.47;100.00;102040.38;2617572;31;20477;-67
2021/08/28 11:35:32;;;;;;;6.53;2.40;;;;;;;19.75;100.00;102040.13;2616925;36;20026;-67
2021/08/28 11:38:06;;;;;;;5.97;2.75;;;;;;;19.82;100.00;102043.91;2616980;36;20026;-69
2021/08/28 11:40:36;;;;;;;6.68;3.30;;;;;;;19.90;100.00;102041.19;2617154;36;20085;-66
2021/08/28 11:43:09;;;;;;;7.18;2.70;;;;;;;20.03;100.00;102048.03;2617066;36;20027;-66
2021/08/28 11:45:40;;;;;;;4.20;2.55;;;;;;;20.17;100.00;102047.38;2617002;36;20561;-66
2021/08/28 11:48:11;;;;;;;5.45;2.53;;;;;;;20.45;100.00;102036.94;2616537;31;20570;-70
2021/08/28 11:50:41;;;;;;;5.70;2.70;;;;;;;20.79;100.00;102040.50;2616659;36;20122;-66
2021/08/28 11:53:09;;;;;;;5.78;2.63;;;;;;;21.05;100.00;102039.38;2617004;36;20046;-64
2021/08/28 11:55:38;;;;;;;5.70;2.50;;;;;;;20.80;100.00;102040.31;2617011;36;20078;-66
2021/08/28 11:58:12;;;;;;;5.38;2.97;;;;;;;21.00;100.00;102039.91;2616777;31;20057;-67
2021/08/28 12:00:41;;;;;;;5.55;2.50;;;;;;;21.39;100.00;102035.44;2617006;36;20057;-70
2021/08/28 12:03:10;;;;;;;3.78;2.72;;;;;;;21.70;100.00;102038.19;2616479;36;20029;-67
2021/08/28 12:05:39;;;;;;;6.22;2.63;;;;;;;21.27;100.00;102040.47;2616901;36;20141;-71
2021/08/28 12:08:07;;;;;;;;;;;;;;;21.76;100.00;102039.38;2616994;36;20034;-67
2021/08/28 12:10:36;;;;;;;4.65;2.75;;;;;;;21.91;100.00;102032.09;2617443;36;19958;-69
2021/08/28 12:13:08;;;;;;;4.07;2.30;;;;;;;21.60;100.00;102038.47;2617941;31;20511;-67
2021/08/28 12:15:36;;;;;;;5.78;2.50;;;;;;;21.14;100.00;102035.56;2616945;36;20110;-63
2021/08/28 12:18:12;;;;;;;4.53;2.88;;;;;;;20.74;100.00;102045.63;2617063;36;20027;-66
2021/08/28 12:20:40;;;;;;;6.03;2.67;;;;;;;20.45;100.00;102047.00;2615624;31;20079;-66
2021/08/28 12:23:13;;;;;;;4.57;2.53;;;;;;;20.36;100.00;102053.50;2617145;36;20081;-68
2021/08/28 12:25:42;;;;;;;3.85;2.42;;;;;;;20.33;100.00;102051.13;2617500;36;20027;-66
2021/08/28 12:28:13;;;;;;;5.38;2.30;;;;;;;20.11;100.00;102048.91;2616682;36;20614;-68
2021/08/28 12:30:41;;;;;;;6.47;2.30;;;;;;;20.24;100.00;102048.41;2614857;36;20131;-64
2021/08/28 12:33:13;;;;;;;;;;;;;;;20.40;100.00;102043.94;2617076;36;20063;-69
2021/08/28 12:35:41;;;;;;;5.45;2.22;;;;;;;20.26;100.00;102043.59;2616925;36;20448;-65
2021/08/28 12:38:17;;;;;;;7.63;2.50;;;;;;;20.42;100.00;102052.81;2617004;36;20038;-68
2021/08/28 12:40:46;;;;;;;6.90;2.33;;;;;;;20.35;100.00;102065.47;2616285;36;20049;-65
2021/08/28 12:43:17;;;;;;;4.50;2.28;;;;;;;20.50;100.00;102054.69;2617492;36;20129;-67
2021/08/28 12:45:46;;;;;;;5.78;2.65;;;;;;;20.43;100.00;102057.25;2617350;36;20041;-68
2021/08/28 12:48:18;;;;;;;;;;;;;;;20.79;100.00;102052.28;2617411;36;20113;-68
2021/08/28 12:50:46;;;;;;;4.80;2.53;;;;;;;20.90;100.00;102047.47;2617191;36;19945;-67
2021/08/28 12:53:15;;;;;;;4.72;2.03;;;;;;;20.53;100.00;102048.88;2613800;36;20132;-67
2021/08/28 12:55:43;;;;;;;7.80;2.78;;;;;;;20.07;100.00;102049.41;2615323;36;20141;-72
2021/08/28 12:58:13;;;;;;;4.88;2.15;;;;;;;19.60;100.00;102062.59;2617346;31;20081;-68
2021/08/28 13:00:46;;;;;;;5.75;2.63;;;;;;;19.74;100.00;102062.97;2617305;36;20034;-65
2021/08/28 13:03:28;;;;;;;7.35;2.28;;;;;;;19.40;100.00;102050.25;2615007;36;20116;-65
2021/08/28 13:05:56;;;;;;;5.72;2.42;;;;;;;19.39;100.00;102056.72;2616974;36;20030;-67
2021/08/28 13:08:32;;;;;;;6.07;2.30;;;;;;;19.74;100.00;102062.97;2616710;36;20626;-66
2021/08/28 13:11:19;;;;;;;8.27;2.33;;;;;;;19.70;100.00;102056.13;2617521;36;20034;-65
2021/08/28 13:13:54;;;;;;;7.85;2.63;;;;;;;19.99;100.00;102061.16;2616834;36;20019;-68
2021/08/28 13:16:26;;;;;;;3.65;1.98;;;;;;;20.06;100.00;102061.38;2611587;36;20125;-67
2021/08/28 13:19:10;;;;;;;5.82;2.20;;;;;;;20.15;100.00;102054.88;2616186;36;20672;-64
2021/08/28 13:21:39;;;;;;;5.40;2.40;;;;;;;19.97;100.00;102046.00;2617432;36;20126;-68
2021/08/28 13:24:12;;;;;;;5.43;2.53;;;;;;;19.88;100.00;102051.44;2616743;36;20027;-68
2021/08/28 13:26:59;;;;;;;7.10;2.58;;;;;;;19.50;100.00;102061.91;2617215;36;20073;-69
2021/08/28 13:29:29;;;;;;;8.93;3.25;;;;;;;19.24;100.00;102051.91;2617020;36;20042;-72
2021/08/28 13:32:11;;;;;;;7.10;2.70;;;;;;;19.36;100.00;102054.34;2616418;36;20039;-67
2021/08/28 13:34:41;;;;;;;8.82;2.78;;;;;;;19.43;100.00;102055.38;2616745;36;20069;-66
2021/08/28 13:37:10;;;;;;;7.90;2.53;;;;;;;19.19;100.00;102048.81;2616606;36;20086;-66
2021/08/28 13:39:40;;;;;;;9.00;2.15;;;;;;;19.35;100.00;102050.75;2616739;36;20069;-69
2021/08/28 13:42:19;;;;;;;7.22;2.10;;;;;;;19.68;100.00;102058.19;2615845;36;20081;-66
2021/08/28 13:44:47;;;;;;;4.28;2.50;;;;;;;19.71;100.00;102053.28;2617356;31;20150;-66
2021/08/28 13:47:18;;;;;;;5.60;2.30;;;;;;;19.34;100.00;102057.22;2617129;36;20150;-65
2021/08/28 13:49:47;;;;;;;3.72;2.03;;;;;;;19.43;100.00;102052.66;2617002;31;20054;-71
2021/08/28 13:52:16;;;;;;;5.13;2.47;;;;;;;19.67;100.00;102045.53;2615771;36;20154;-69
2021/08/28 13:54:44;;;;;;;;;;;;;;;19.65;100.00;102044.88;2617098;36;20038;-64
2021/08/28 13:57:12;;;;;;;4.37;2.23;;;;;;;19.49;100.00;102054.72;2617135;36;20030;-65
2021/08/28 13:59:40;;;;;;;6.28;2.35;;;;;;;19.36;100.00;102054.34;2615603;36;20390;-65
2021/08/28 14:02:08;;;;;;;5.17;2.20;;;;;;;19.36;100.00;102049.75;2616246;36;20125;-67
2021/08/28 14:04:39;;;;;;;4.73;2.43;;;;;;;19.41;100.00;102041.06;2617121;31;20490;-73
2021/08/28 14:07:08;;;;;;;5.47;2.47;;;;;;;19.36;100.00;102043.41;2617223;36;20312;-65